createdAt,value
2022-12-28T00:01:16.217Z,39.43
2022-12-28T00:03:43.434Z,23.25
2022-12-28T00:06:11.315Z,15.63
2022-12-28T00:08:38.686Z,15.80
2022-12-28T00:11:11.378Z,17.88
2022-12-28T00:13:41.682Z,20.23
2022-12-28T00:16:08.977Z,17.83
2022-12-28T00:18:37.015Z,13.13
2022-12-28T00:21:04.955Z,16.27
2022-12-28T00:23:32.098Z,13.23
2022-12-28T00:26:12.918Z,15.50
2022-12-28T00:28:40.113Z,15.97
2022-12-28T00:31:07.441Z,13.10
2022-12-28T00:33:34.656Z,19.20
2022-12-28T00:36:02.783Z,21.07
2022-12-28T00:38:32.038Z,23.03
2022-12-28T00:40:59.286Z,18.60
2022-12-28T00:43:26.405Z,23.43
2022-12-28T00:45:53.403Z,18.07
2022-12-28T00:48:20.375Z,18.87
2022-12-28T00:50:47.410Z,17.90
2022-12-28T00:53:14.691Z,18.73
2022-12-28T00:55:42.460Z,15.30
2022-12-28T00:58:09.469Z,17.50
2022-12-28T01:00:37.024Z,16.70
2022-12-28T01:03:04.102Z,16.47
2022-12-28T01:05:30.626Z,16.63
2022-12-28T01:07:57.605Z,15.53
2022-12-28T01:10:24.803Z,19.38
2022-12-28T01:12:51.906Z,15.00
2022-12-28T01:15:18.968Z,16.30
2022-12-28T01:17:45.961Z,13.90
2022-12-28T01:20:13.026Z,16.50
2022-12-28T01:22:40.141Z,19.50
2022-12-28T01:25:07.121Z,16.90
2022-12-28T01:27:34.372Z,14.53
2022-12-28T01:30:01.223Z,17.73
2022-12-28T01:32:28.200Z,15.73
2022-12-28T01:34:55.393Z,15.05
2022-12-28T01:37:22.378Z,16.77
2022-12-28T01:39:49.527Z,17.97
2022-12-28T01:42:17.269Z,16.10
2022-12-28T01:44:46.031Z,18.83
2022-12-28T01:47:15.322Z,17.50
2022-12-28T01:50:00.889Z,12.87
2022-12-28T01:52:45.704Z,14.87
2022-12-28T01:55:17.646Z,18.55
2022-12-28T01:58:04.774Z,17.07
2022-12-28T02:00:31.935Z,15.37
2022-12-28T02:03:05.067Z,19.60
2022-12-28T02:05:36.094Z,16.55
2022-12-28T02:08:06.337Z,19.40
2022-12-28T02:10:40.457Z,16.95
2022-12-28T02:13:13.167Z,16.93
2022-12-28T02:15:40.442Z,19.20
2022-12-28T02:18:07.444Z,21.13
2022-12-28T02:20:42.693Z,16.67
2022-12-28T02:23:24.706Z,17.27
2022-12-28T02:26:01.346Z,17.40
2022-12-28T02:28:55.607Z,19.73
2022-12-28T02:33:52.620Z,33.97
2022-12-28T02:36:29.171Z,36.20
2022-12-28T02:38:58.994Z,22.63
2022-12-28T02:41:26.740Z,45.70
2022-12-28T02:43:54.143Z,37.40
2022-12-28T02:46:47.459Z,20.67
2022-12-28T02:49:36.051Z,92.53
2022-12-28T02:52:12.096Z,53.83
2022-12-28T02:55:03.962Z,146.50
2022-12-28T02:57:49.398Z,92.53
2022-12-28T03:00:17.624Z,186.13
2022-12-28T03:02:53.946Z,112.90
2022-12-28T03:06:19.129Z,98.67
2022-12-28T03:08:46.368Z,266.07
2022-12-28T03:11:17.019Z,180.07
2022-12-28T03:13:50.048Z,84.07
2022-12-28T03:17:02.110Z,24.95
2022-12-28T03:19:50.042Z,15.87
2022-12-28T03:22:36.324Z,15.93
2022-12-28T03:25:25.886Z,20.83
2022-12-28T03:28:12.415Z,55.53
2022-12-28T03:30:59.414Z,150.07
2022-12-28T03:33:26.411Z,149.03
2022-12-28T03:36:01.374Z,146.83
2022-12-28T03:38:54.812Z,366.80
2022-12-28T03:41:29.253Z,373.30
2022-12-28T03:43:59.122Z,173.10
2022-12-28T03:46:30.950Z,270.60
2022-12-28T03:48:58.745Z,117.83
2022-12-28T03:51:26.671Z,109.80
2022-12-28T03:53:53.965Z,183.00
2022-12-28T03:56:25.705Z,206.80
2022-12-28T03:58:53.452Z,257.67
2022-12-28T04:01:20.679Z,233.27
2022-12-28T04:03:47.956Z,181.77
2022-12-28T04:06:16.956Z,172.83
2022-12-28T04:08:44.218Z,230.03
2022-12-28T04:11:11.361Z,203.47
2022-12-28T04:13:38.623Z,159.20
2022-12-28T04:16:07.011Z,348.80
2022-12-28T04:18:39.957Z,231.27
2022-12-28T04:21:06.872Z,109.57
2022-12-28T04:23:34.078Z,116.17
2022-12-28T04:26:02.451Z,75.23
2022-12-28T04:28:30.018Z,89.60
2022-12-28T04:30:57.761Z,160.73
2022-12-28T04:33:25.152Z,97.17
2022-12-28T04:35:52.254Z,48.97
2022-12-28T04:38:19.796Z,102.40
2022-12-28T04:40:46.807Z,113.37
2022-12-28T04:43:13.924Z,86.83
2022-12-28T04:45:40.982Z,33.33
2022-12-28T04:48:07.913Z,22.53
2022-12-28T04:50:36.563Z,22.37
2022-12-28T04:53:03.561Z,32.10
2022-12-28T04:55:32.015Z,23.13
2022-12-28T04:58:00.088Z,38.77
2022-12-28T05:00:27.157Z,100.40
2022-12-28T05:02:54.253Z,42.20
2022-12-28T05:05:21.439Z,26.60
2022-12-28T05:07:48.510Z,21.57
2022-12-28T05:10:15.494Z,22.93
2022-12-28T05:12:42.489Z,18.03
2022-12-28T05:15:09.781Z,23.70
2022-12-28T05:17:36.868Z,20.00
2022-12-28T05:20:04.679Z,20.53
2022-12-28T05:22:35.086Z,20.83
2022-12-28T05:25:04.862Z,24.40
2022-12-28T05:27:31.957Z,21.93
2022-12-28T05:29:58.875Z,24.53
2022-12-28T05:32:25.800Z,25.57
2022-12-28T05:34:52.910Z,23.70
2022-12-28T05:37:22.278Z,30.30
2022-12-28T05:39:49.690Z,30.60
2022-12-28T05:42:16.665Z,28.47
2022-12-28T05:44:43.955Z,26.47
2022-12-28T05:47:11.213Z,30.07
2022-12-28T05:49:38.558Z,31.27
2022-12-28T05:52:05.795Z,32.00
2022-12-28T05:54:32.828Z,25.30
2022-12-28T05:57:00.173Z,24.17
2022-12-28T05:59:27.481Z,27.80
2022-12-28T06:01:54.828Z,33.07
2022-12-28T06:04:22.270Z,28.00
2022-12-28T06:06:57.331Z,28.53
2022-12-28T06:09:24.460Z,25.07
2022-12-28T06:11:51.448Z,27.47
2022-12-28T06:14:18.809Z,31.43
2022-12-28T06:16:46.463Z,29.60
2022-12-28T06:19:15.865Z,27.33
2022-12-28T06:21:43.049Z,29.17
2022-12-28T06:24:11.215Z,26.77
2022-12-28T06:26:39.854Z,32.93
2022-12-28T06:29:07.324Z,29.13
2022-12-28T06:31:35.324Z,29.20
2022-12-28T06:34:03.403Z,32.80
2022-12-28T06:36:34.480Z,29.83
2022-12-28T06:39:01.957Z,28.47
2022-12-28T06:41:29.334Z,25.60
2022-12-28T06:43:56.761Z,25.00
2022-12-28T06:46:24.875Z,28.97
2022-12-28T06:48:51.939Z,29.57
2022-12-28T06:51:23.620Z,31.40
2022-12-28T06:53:51.719Z,30.03
2022-12-28T06:56:20.504Z,28.43
2022-12-28T06:58:48.323Z,93.83
2022-12-28T07:01:16.762Z,263.37
2022-12-28T07:03:44.630Z,171.47
2022-12-28T07:06:12.400Z,98.97
2022-12-28T07:08:40.957Z,93.63
2022-12-28T07:11:15.598Z,255.27
2022-12-28T07:13:43.138Z,82.40
2022-12-28T07:16:20.309Z,55.80
2022-12-28T07:18:47.663Z,39.57
2022-12-28T07:21:16.962Z,37.93
2022-12-28T07:23:43.827Z,39.23
2022-12-28T07:26:12.374Z,35.50
2022-12-28T07:28:40.435Z,34.13
2022-12-28T07:31:08.576Z,38.28
2022-12-28T07:33:36.331Z,34.25
2022-12-28T07:36:04.151Z,35.20
2022-12-28T07:38:31.282Z,28.65
2022-12-28T07:41:05.597Z,27.83
2022-12-28T07:43:33.053Z,25.60
2022-12-28T07:46:01.587Z,25.02
2022-12-28T07:48:29.111Z,29.98
2022-12-28T07:50:56.051Z,31.65
2022-12-28T07:53:23.357Z,31.60
2022-12-28T07:55:57.338Z,36.97
2022-12-28T07:58:24.465Z,111.13
2022-12-28T08:00:51.543Z,90.70
2022-12-28T08:03:19.790Z,50.03
2022-12-28T08:05:47.148Z,71.38
2022-12-28T08:08:14.005Z,44.85
2022-12-28T08:10:41.369Z,34.80
2022-12-28T08:13:08.350Z,27.85
2022-12-28T08:15:35.722Z,23.52
2022-12-28T08:18:02.670Z,26.98
2022-12-28T08:20:29.985Z,20.00
2022-12-28T08:22:56.790Z,25.38
2022-12-28T08:25:23.781Z,29.70
2022-12-28T08:27:51.102Z,25.50
2022-12-28T08:30:18.469Z,20.48
2022-12-28T08:32:45.589Z,24.58
2022-12-28T08:35:12.600Z,29.02
2022-12-28T08:37:39.711Z,24.02
2022-12-28T08:40:07.039Z,24.23
2022-12-28T08:42:34.229Z,22.60
2022-12-28T08:45:01.176Z,15.93
2022-12-28T08:47:28.899Z,15.40
2022-12-28T08:49:56.111Z,16.98
2022-12-28T08:52:25.240Z,18.83
2022-12-28T08:54:52.513Z,19.02
2022-12-28T08:57:19.386Z,13.98
2022-12-28T08:59:46.694Z,36.35
2022-12-28T09:02:13.927Z,26.92
2022-12-28T09:04:41.851Z,55.78
2022-12-28T09:07:09.087Z,25.17
2022-12-28T09:09:36.320Z,20.13
2022-12-28T09:12:03.656Z,17.17
2022-12-28T09:14:31.015Z,13.63
2022-12-28T09:16:58.953Z,13.23
2022-12-28T09:19:26.226Z,15.65
2022-12-28T09:21:53.704Z,17.63
2022-12-28T09:24:21.005Z,16.40
2022-12-28T09:26:48.290Z,10.40
2022-12-28T09:29:15.886Z,17.40
2022-12-28T09:31:44.538Z,14.75
2022-12-28T09:37:01.706Z,13.68
2022-12-28T09:39:29.169Z,40.13
2022-12-28T09:42:15.362Z,20.92
2022-12-28T09:44:42.436Z,20.85
2022-12-28T09:47:13.158Z,17.15
2022-12-28T09:49:46.592Z,18.65
2022-12-28T09:52:25.917Z,18.73
2022-12-28T09:54:53.599Z,14.02
2022-12-28T09:57:21.146Z,15.23
2022-12-28T09:59:49.656Z,15.65
2022-12-28T10:02:38.407Z,15.25
2022-12-28T10:05:06.023Z,16.73
2022-12-28T10:07:33.413Z,22.75
2022-12-28T10:10:00.629Z,34.88
2022-12-28T10:12:30.063Z,26.33
2022-12-28T10:14:58.025Z,22.67
2022-12-28T10:17:29.310Z,39.85
2022-12-28T10:19:58.240Z,32.33
2022-12-28T10:22:26.166Z,18.95
2022-12-28T10:24:53.781Z,18.15
2022-12-28T10:27:25.131Z,21.90
2022-12-28T10:29:53.179Z,18.77
2022-12-28T10:32:21.208Z,38.15
2022-12-28T10:34:59.464Z,29.52
2022-12-28T10:37:28.099Z,29.27
2022-12-28T10:40:21.377Z,25.45
2022-12-28T10:42:51.672Z,20.42
2022-12-28T10:45:20.936Z,24.90
2022-12-28T10:47:49.567Z,27.33
2022-12-28T10:50:37.413Z,18.77
2022-12-28T10:53:05.069Z,22.83
2022-12-28T10:55:33.953Z,18.63
2022-12-28T10:58:29.160Z,18.67
2022-12-28T11:00:58.938Z,16.88
2022-12-28T11:03:27.405Z,33.20
2022-12-28T11:06:27.070Z,35.63
2022-12-28T11:09:00.257Z,20.40
2022-12-28T11:11:27.419Z,29.25
2022-12-28T11:14:11.857Z,52.42
2022-12-28T11:16:40.512Z,40.33
2022-12-28T11:19:07.732Z,59.58
2022-12-28T11:21:35.509Z,103.45
2022-12-28T11:24:03.001Z,89.65
2022-12-28T11:26:33.809Z,106.95
2022-12-28T11:29:01.609Z,74.28
2022-12-28T11:31:31.607Z,30.38
2022-12-28T11:34:00.525Z,30.75
2022-12-28T11:36:28.223Z,29.75
2022-12-28T11:38:56.843Z,28.27
2022-12-28T11:41:33.744Z,33.58
2022-12-28T11:44:03.457Z,27.77
2022-12-28T11:46:30.520Z,28.95
2022-12-28T11:49:04.004Z,25.85
2022-12-28T11:51:35.102Z,26.17
2022-12-28T11:54:03.597Z,43.00
2022-12-28T11:56:33.844Z,15.18
2022-12-28T11:59:02.552Z,21.52
2022-12-28T12:01:34.312Z,18.85
2022-12-28T12:04:01.633Z,20.33
2022-12-28T12:06:44.335Z,41.33
2022-12-28T12:09:26.867Z,31.65
2022-12-28T12:11:54.008Z,21.00
2022-12-28T12:14:27.071Z,41.05
2022-12-28T12:17:03.443Z,13.90
2022-12-28T12:19:33.293Z,20.25
2022-12-28T12:22:21.741Z,34.88
2022-12-28T12:25:07.090Z,24.60
2022-12-28T12:27:42.009Z,20.67
2022-12-28T12:30:14.867Z,19.85
2022-12-28T12:32:46.069Z,17.90
2022-12-28T12:35:22.878Z,18.25
2022-12-28T12:38:14.738Z,20.63
2022-12-28T12:40:44.739Z,15.73
2022-12-28T12:43:20.867Z,12.05
2022-12-28T12:46:06.808Z,18.50
2022-12-28T12:48:33.834Z,23.00
2022-12-28T12:51:06.978Z,18.15
2022-12-28T12:53:48.858Z,19.02
2022-12-28T12:56:19.234Z,22.38
2022-12-28T12:58:49.147Z,22.92
2022-12-28T13:01:33.313Z,20.90
2022-12-28T13:04:07.435Z,14.75
2022-12-28T13:06:35.779Z,17.00
2022-12-28T13:09:05.896Z,17.13
2022-12-28T13:11:36.034Z,15.93
2022-12-28T13:14:03.314Z,13.75
2022-12-28T13:16:31.772Z,15.70
2022-12-28T13:19:00.116Z,20.02
2022-12-28T13:21:28.446Z,18.00
2022-12-28T13:23:55.817Z,41.72
2022-12-28T13:26:26.380Z,23.98
2022-12-28T13:28:58.658Z,25.60
2022-12-28T13:31:35.883Z,29.58
2022-12-28T13:34:04.648Z,33.20
2022-12-28T13:36:32.149Z,82.30
2022-12-28T13:39:19.196Z,62.33
2022-12-28T13:41:49.299Z,66.63
2022-12-28T13:44:16.357Z,41.15
2022-12-28T13:46:45.254Z,68.60
2022-12-28T13:49:13.108Z,37.90
2022-12-28T13:51:41.404Z,42.75
2022-12-28T13:54:10.290Z,57.97
2022-12-28T13:56:38.881Z,68.03
2022-12-28T13:59:09.448Z,23.75
2022-12-28T14:01:39.525Z,45.33
2022-12-28T14:04:51.913Z,28.65
2022-12-28T14:07:15.395Z,146.65
2022-12-28T14:09:43.050Z,67.38
2022-12-28T14:12:10.714Z,27.90
2022-12-28T14:14:38.844Z,28.63
2022-12-28T14:17:06.411Z,40.30
2022-12-28T14:19:37.074Z,32.20
2022-12-28T14:22:24.346Z,28.00
2022-12-28T14:25:01.121Z,41.55
2022-12-28T14:27:28.320Z,31.85
2022-12-28T14:29:55.944Z,41.33
2022-12-28T14:32:23.164Z,32.83
2022-12-28T14:34:55.850Z,48.10
2022-12-28T14:37:25.120Z,56.38
2022-12-28T14:39:52.350Z,42.90
2022-12-28T14:42:21.042Z,32.15
2022-12-28T14:44:54.134Z,47.70
2022-12-28T14:47:32.312Z,46.10
2022-12-28T14:50:00.751Z,77.18
2022-12-28T14:52:34.474Z,56.38
2022-12-28T14:57:35.686Z,45.55
2022-12-28T15:00:05.432Z,52.05
2022-12-28T15:02:35.869Z,46.78
2022-12-28T15:05:03.068Z,51.50
2022-12-28T15:07:31.614Z,31.42
2022-12-28T15:09:58.831Z,24.55
2022-12-28T15:12:25.956Z,14.80
2022-12-28T15:14:53.291Z,17.50
2022-12-28T15:17:20.632Z,26.50
2022-12-28T15:19:47.679Z,40.05
2022-12-28T15:22:14.774Z,25.25
2022-12-28T15:24:45.757Z,25.00
2022-12-28T15:27:13.104Z,29.33
2022-12-28T15:30:04.268Z,25.33
2022-12-28T15:32:28.049Z,21.83
2022-12-28T15:34:55.701Z,19.83
2022-12-28T15:37:22.857Z,18.02
2022-12-28T15:39:49.903Z,19.90
2022-12-28T15:42:17.033Z,20.40
2022-12-28T15:44:44.371Z,26.33
2022-12-28T15:47:11.468Z,20.60
2022-12-28T15:49:38.476Z,24.42
2022-12-28T15:52:05.750Z,26.85
2022-12-28T15:54:33.085Z,25.67
2022-12-28T15:57:00.186Z,40.83
2022-12-28T15:59:28.206Z,36.10
2022-12-28T16:01:55.517Z,55.05
2022-12-28T16:04:22.697Z,55.58
2022-12-28T16:06:50.112Z,41.92
2022-12-28T16:09:17.360Z,52.65
2022-12-28T16:11:46.538Z,50.30
2022-12-28T16:14:16.393Z,35.65
2022-12-28T16:16:43.988Z,38.90
2022-12-28T16:19:13.039Z,44.15
2022-12-28T16:21:40.288Z,35.95
2022-12-28T16:24:07.669Z,42.10
2022-12-28T16:26:34.854Z,36.85
2022-12-28T16:29:02.257Z,150.18
2022-12-28T16:31:30.584Z,57.60
2022-12-28T16:34:04.471Z,62.75
2022-12-28T16:36:31.689Z,58.63
2022-12-28T16:38:58.527Z,53.35
2022-12-28T16:41:27.842Z,29.20
2022-12-28T16:44:03.810Z,39.33
2022-12-28T16:46:31.071Z,39.90
2022-12-28T16:49:00.282Z,52.70
2022-12-28T16:51:27.369Z,37.83
2022-12-28T16:53:54.798Z,61.72
2022-12-28T16:56:21.849Z,66.68
2022-12-28T16:58:49.636Z,73.50
2022-12-28T17:01:17.034Z,44.40
2022-12-28T17:03:44.306Z,66.00
2022-12-28T17:06:11.616Z,75.22
2022-12-28T17:08:38.668Z,92.03
2022-12-28T17:11:09.668Z,62.53
2022-12-28T17:13:37.350Z,40.58
2022-12-28T17:16:04.795Z,39.38
2022-12-28T17:18:32.256Z,49.28
2022-12-28T17:21:03.377Z,47.10
2022-12-28T17:23:33.867Z,51.08
2022-12-28T17:26:01.131Z,37.70
2022-12-28T17:28:29.562Z,60.45
2022-12-28T17:31:03.907Z,58.72
2022-12-28T17:33:37.135Z,51.00
2022-12-28T17:36:06.616Z,40.88
2022-12-28T17:38:33.599Z,66.00
2022-12-28T17:41:00.806Z,53.17
2022-12-28T17:43:27.846Z,39.38
2022-12-28T17:45:55.036Z,25.27
2022-12-28T17:48:27.440Z,26.23
2022-12-28T17:50:54.419Z,46.17
2022-12-28T17:53:21.688Z,39.42
2022-12-28T17:55:49.221Z,37.60
2022-12-28T17:58:16.203Z,23.17
2022-12-28T18:00:43.664Z,42.92
2022-12-28T18:03:10.964Z,48.05
2022-12-28T18:05:38.084Z,36.85
2022-12-28T18:08:05.294Z,17.30
2022-12-28T18:10:32.475Z,26.02
2022-12-28T18:12:59.664Z,17.77
2022-12-28T18:15:32.816Z,14.70
2022-12-28T18:18:00.791Z,15.50
2022-12-28T18:20:27.923Z,19.48
2022-12-28T18:22:55.197Z,23.52
2022-12-28T18:25:22.284Z,19.02
2022-12-28T18:27:49.403Z,20.80
2022-12-28T18:30:16.901Z,17.35
2022-12-28T18:32:44.036Z,15.57
2022-12-28T18:35:12.400Z,17.65
2022-12-28T18:37:39.171Z,14.93
2022-12-28T18:40:06.682Z,18.17
2022-12-28T18:42:33.909Z,17.50
2022-12-28T18:45:01.250Z,19.15
2022-12-28T18:47:33.228Z,17.08
2022-12-28T18:50:00.624Z,14.77
2022-12-28T18:52:28.187Z,17.13
2022-12-28T18:54:55.169Z,15.40
2022-12-28T18:57:22.373Z,15.07
2022-12-28T18:59:49.289Z,16.00
2022-12-28T19:02:19.726Z,15.77
2022-12-28T19:04:48.678Z,16.25
2022-12-28T19:07:16.766Z,15.60
2022-12-28T19:10:09.849Z,17.58
2022-12-28T19:12:39.329Z,15.07
2022-12-28T19:15:06.700Z,17.40
2022-12-28T19:17:34.149Z,13.77
2022-12-28T19:20:01.452Z,13.90
2022-12-28T19:22:28.882Z,17.90
2022-12-28T19:24:55.315Z,17.15
2022-12-28T19:27:22.306Z,18.75
2022-12-28T19:29:51.063Z,35.72
2022-12-28T19:32:18.450Z,61.90
2022-12-28T19:34:45.710Z,323.38
2022-12-28T19:37:12.839Z,195.60
2022-12-28T19:39:40.009Z,93.43
2022-12-28T19:42:07.304Z,205.07
2022-12-28T19:44:34.417Z,38.80
2022-12-28T19:47:01.567Z,237.23
2022-12-28T19:49:28.560Z,416.27
2022-12-28T19:51:56.418Z,211.10
2022-12-28T19:54:23.933Z,78.32
2022-12-28T19:56:51.009Z,73.93
2022-12-28T19:59:18.190Z,76.95
2022-12-28T20:01:45.273Z,194.02
2022-12-28T20:04:14.258Z,216.13
2022-12-28T20:06:43.479Z,79.18
2022-12-28T20:09:10.978Z,51.28
2022-12-28T20:11:38.781Z,220.43
2022-12-28T20:14:06.282Z,180.23
2022-12-28T20:16:34.710Z,360.30
2022-12-28T20:19:02.244Z,145.75
2022-12-28T20:21:29.486Z,374.15
2022-12-28T20:23:57.006Z,225.60
2022-12-28T20:26:25.515Z,192.35
2022-12-28T20:28:53.687Z,598.20
2022-12-28T20:31:21.204Z,323.08
2022-12-28T20:33:48.514Z,199.07
2022-12-28T20:36:20.124Z,385.80
2022-12-28T20:38:47.822Z,242.43
2022-12-28T20:41:35.485Z,155.63
2022-12-28T20:44:04.428Z,146.35
2022-12-28T20:46:31.627Z,116.47
2022-12-28T20:48:59.803Z,305.05
2022-12-28T20:51:27.472Z,244.98
2022-12-28T20:53:55.749Z,175.27
2022-12-28T20:56:23.432Z,75.70
2022-12-28T20:58:50.809Z,83.85
2022-12-28T21:01:18.016Z,64.00
2022-12-28T21:03:45.516Z,61.92
2022-12-28T21:06:15.019Z,89.03
2022-12-28T21:08:42.129Z,39.28
2022-12-28T21:11:09.403Z,69.85
2022-12-28T21:13:40.864Z,287.45
2022-12-28T21:16:11.889Z,163.45
2022-12-28T21:18:39.353Z,456.75
2022-12-28T21:21:06.795Z,182.93
2022-12-28T21:23:33.923Z,95.72
2022-12-28T21:26:08.345Z,82.43
2022-12-28T21:28:35.400Z,106.03
2022-12-28T21:31:05.395Z,50.85
2022-12-28T21:33:33.275Z,56.60
2022-12-28T21:36:01.772Z,65.50
2022-12-28T21:38:29.350Z,51.38
2022-12-28T21:40:57.624Z,52.58
2022-12-28T21:43:24.642Z,29.27
2022-12-28T21:46:02.863Z,30.77
2022-12-28T21:48:33.957Z,64.47
2022-12-28T21:51:04.663Z,26.35
2022-12-28T21:53:31.764Z,24.92
2022-12-28T21:55:58.932Z,28.08
2022-12-28T21:58:26.274Z,24.40
2022-12-28T22:01:16.082Z,24.67
2022-12-28T22:04:01.950Z,26.40
2022-12-28T22:06:29.055Z,23.52
2022-12-28T22:09:14.425Z,23.05
2022-12-28T22:12:00.060Z,22.08
2022-12-28T22:14:27.315Z,22.15
2022-12-28T22:16:54.620Z,22.15
2022-12-28T22:19:21.609Z,24.15
2022-12-28T22:21:48.901Z,16.35
2022-12-28T22:24:16.159Z,23.30
2022-12-28T22:26:43.419Z,20.45
2022-12-28T22:29:10.688Z,22.70
2022-12-28T22:31:40.922Z,22.65
2022-12-28T22:34:08.681Z,22.80
2022-12-28T22:36:35.895Z,26.02
2022-12-28T22:39:02.954Z,22.48
2022-12-28T22:41:30.172Z,19.52
2022-12-28T22:43:57.169Z,23.98
2022-12-28T22:46:24.172Z,19.17
2022-12-28T22:48:51.239Z,22.98
2022-12-28T22:51:18.629Z,19.60
2022-12-28T22:53:45.757Z,18.40
2022-12-28T22:56:20.094Z,19.02
2022-12-28T22:58:47.768Z,18.50
2022-12-28T23:01:16.471Z,19.83
2022-12-28T23:03:44.565Z,17.35
2022-12-28T23:06:12.447Z,19.65
2022-12-28T23:08:39.563Z,17.10
2022-12-28T23:11:30.588Z,20.88
2022-12-28T23:14:19.798Z,18.70
2022-12-28T23:16:47.136Z,17.60
2022-12-28T23:19:32.775Z,18.20
2022-12-28T23:22:31.720Z,16.63
2022-12-28T23:25:17.431Z,15.95
2022-12-28T23:27:45.666Z,14.98
2022-12-28T23:30:14.384Z,15.38
2022-12-28T23:32:41.477Z,16.50
2022-12-28T23:35:09.090Z,15.25
2022-12-28T23:37:36.233Z,15.80
2022-12-28T23:40:03.345Z,18.58
2022-12-28T23:42:30.527Z,14.48
2022-12-28T23:44:57.443Z,14.88
2022-12-28T23:47:24.383Z,16.30
2022-12-28T23:49:51.662Z,15.07
2022-12-28T23:52:23.807Z,15.68
2022-12-28T23:54:52.850Z,15.70
2022-12-28T23:57:20.235Z,14.40
2022-12-28T23:59:47.093Z,16.55
